Leon, Oklahoma
Current Conditions -  °F | °C
As of 8:35 PM on Tuesday 25 Nov 2014 (Local Time) from KGLE Reporting Station
Clear Clear  
Wind Chill: 40°   Ceiling: Unl
Heat Index: 43°   Visibility: 10mi
Dew Point: 29°   Wind: 5mph
Humidity: 58%   Direction: 110°ESE
Pressure: 30.14"   Gusts: NA
Location:  33.88°N, 97.43°W
Report Text: KGLE 260235Z AUTO 11004KT 10SM CLR 06/M02 A3014 RMK AO2 T00621016
Loading
Personal Weather Stations






























Interactive Weather Map New forecast layout! Learn more

10-Day Weather Forecast

Advertisements
Track Severe Weather on mobile